Aérodrome :
LOGIN :

S'inscrire | Disclaimer

   EN    FR    IT 

 










Légende :    VFR   VFR Marginal   IFR   IFR Intensif   IFR Très Intensif
Visi : 
Plafond : 
>= 8 km
>= 3000ft
5 à 8 km
1000 à 3000 ft
1500m à 5 km
500 à 1000 ft
800 à 1500m
200 à 500 ft
< 800m
< 200 ft
Symboles :   Orages  Brouillard  Fortes neiges  Fortes précipitations  Vent > 20 kt
SIGMETs :   Divers  Orages  Givrage  Turbulence  Onde Orograph.  Cendres Volcan.






- Altitude de l'aérodrome : 16 ft
- Code IATA : LPX


EVLA - Liepaja

DERNIER METAR :
  • 090720Z AUTO 27006KT 240V300 9999 BKN050/// OVC079/// 08/04 Q1012

METARs EXPIRÉS :
  • 090650Z AUTO 22005KT 9999 BKN048/// OVC067/// 08/03 Q1012
  • 090620Z AUTO 21003KT 9999 FEW030/// BKN047/// OVC058/// 08/04 Q1012
  • 090550Z AUTO 20007KT 9999 SCT057/// BKN074/// 08/04 Q1012
  • 090520Z AUTO 20007KT 9999 BKN073/// 07/04 Q1012
  • 090450Z AUTO 20009KT 9999 BKN055/// BKN063/// OVC071/// 07/04 Q1012
  • 090420Z AUTO 21011KT 9999 OVC056/// 08/03 Q1013

TAF TAF EVLA
Valide du 09 à 06h jusqu'au 10 à 06h UTC


090501Z 0906/1006 20007KT CAVOK
BECMG 0908/0910 33010KT
TEMPO 1000/1006 3000 BR



MET'MAP, la Météo Aéronautique d'un coup d'oeil ! - Copyright ORBIFLY Décembre 2007 - Disclaimer

ORBIFLY MET'MAP TEAM :

Programmation & Développement : Alexandra Zaïnal
Sur une idée originale de : Baudouin d'Aumeries
Assistance à la programmation : Marc-Olivier Méhu
Soutien technique & logistique : Manuel Goepfert

Contact : metmap@orbifly.com




SOURCES & CREDITS :

   NOAA